createdAt,value
2019-04-27T00:00:00.016Z,51.80
2019-04-27T00:03:10.146Z,51.90
2019-04-27T00:05:47.407Z,51.70
2019-04-27T00:08:38.802Z,51.40
2019-04-27T00:11:11.443Z,51.40
2019-04-27T00:13:44.421Z,51.30
2019-04-27T00:16:33.824Z,51.20
2019-04-27T00:19:31.815Z,51.40
2019-04-27T00:22:23.065Z,51.50
2019-04-27T00:24:54.398Z,51.40
2019-04-27T00:27:25.751Z,51.30
2019-04-27T00:29:56.927Z,51.70
2019-04-27T00:32:28.587Z,50.80
2019-04-27T00:34:59.823Z,50.90
2019-04-27T00:37:49.306Z,51.10
2019-04-27T00:40:45.198Z,51.20
2019-04-27T00:43:18.960Z,51.30
2019-04-27T00:45:50.260Z,51.80
2019-04-27T00:48:23.344Z,52.10
2019-04-27T00:50:55.445Z,51.60
2019-04-27T00:53:26.265Z,51.20
2019-04-27T00:56:23.622Z,50.80
2019-04-27T00:59:13.758Z,51.10
2019-04-27T01:01:54.989Z,51.60
2019-04-27T01:04:28.198Z,51.60
2019-04-27T01:06:59.918Z,51.50
2019-04-27T01:09:31.101Z,51.50
2019-04-27T01:12:03.608Z,51.20
2019-04-27T01:14:42.797Z,51.10
2019-04-27T01:17:15.145Z,51.00
2019-04-27T01:19:49.257Z,51.20
2019-04-27T01:22:21.119Z,51.10
2019-04-27T01:24:53.549Z,51.30
2019-04-27T01:27:47.329Z,51.20
2019-04-27T01:30:39.104Z,51.20
2019-04-27T01:33:13.026Z,51.10
2019-04-27T01:35:44.468Z,51.00
2019-04-27T01:38:21.080Z,50.90
2019-04-27T01:40:52.515Z,51.10
2019-04-27T01:43:28.479Z,51.10
2019-04-27T01:46:01.526Z,51.20
2019-04-27T01:48:38.669Z,50.80
2019-04-27T01:51:10.350Z,50.80
2019-04-27T01:53:41.624Z,50.50
2019-04-27T01:56:19.303Z,50.40
2019-04-27T01:58:50.377Z,50.60
2019-04-27T02:01:48.946Z,50.60
2019-04-27T02:04:54.802Z,51.00
2019-04-27T02:07:36.845Z,51.20
2019-04-27T02:10:10.380Z,51.30
2019-04-27T02:12:45.713Z,51.70
2019-04-27T02:15:19.106Z,51.70
2019-04-27T02:17:50.995Z,51.60
2019-04-27T02:20:25.493Z,51.40
2019-04-27T02:23:00.142Z,51.30
2019-04-27T02:25:31.471Z,51.70
2019-04-27T02:28:09.365Z,51.70
2019-04-27T02:31:19.329Z,51.90
2019-04-27T02:34:05.042Z,51.70
2019-04-27T02:36:39.007Z,51.70
2019-04-27T02:39:10.749Z,51.10
2019-04-27T02:41:44.811Z,51.40
2019-04-27T02:44:24.007Z,51.40
2019-04-27T02:47:01.976Z,51.70
2019-04-27T02:49:33.250Z,51.70
2019-04-27T02:52:32.260Z,51.80
2019-04-27T02:55:05.062Z,52.10
2019-04-27T02:57:35.739Z,52.80
2019-04-27T03:00:10.507Z,52.70
2019-04-27T03:02:52.480Z,52.80
2019-04-27T03:05:29.524Z,52.90
2019-04-27T03:08:00.061Z,52.90
2019-04-27T03:10:32.047Z,52.80
2019-04-27T03:13:24.388Z,52.90
2019-04-27T03:16:16.595Z,52.70
2019-04-27T03:19:14.870Z,52.80
2019-04-27T03:22:09.745Z,52.80
2019-04-27T03:24:59.984Z,53.70
2019-04-27T03:27:36.011Z,54.70
2019-04-27T03:30:12.041Z,54.60
2019-04-27T03:32:43.569Z,55.50
2019-04-27T03:35:14.968Z,55.50
2019-04-27T03:37:50.044Z,55.60
2019-04-27T03:40:21.387Z,56.20
2019-04-27T03:42:55.743Z,57.50
2019-04-27T03:45:29.925Z,56.40
2019-04-27T03:48:00.903Z,56.30
2019-04-27T03:50:42.953Z,56.70
2019-04-27T03:53:34.546Z,56.00
2019-04-27T03:56:17.352Z,54.90
2019-04-27T03:58:52.657Z,55.10
2019-04-27T04:01:25.961Z,55.00
2019-04-27T04:03:59.853Z,55.30
2019-04-27T04:06:32.639Z,55.20
2019-04-27T04:09:05.321Z,55.40
2019-04-27T04:11:43.380Z,55.10
2019-04-27T04:14:20.656Z,55.30
2019-04-27T04:17:01.813Z,55.80
2019-04-27T04:19:47.955Z,56.00
2019-04-27T04:22:05.859Z,56.50
2019-04-27T04:24:39.571Z,57.30
2019-04-27T04:27:10.940Z,57.60
2019-04-27T04:29:42.398Z,57.70
2019-04-27T04:32:14.417Z,58.20
2019-04-27T04:34:45.104Z,58.10
2019-04-27T04:37:16.488Z,59.40
2019-04-27T04:39:52.625Z,58.90
2019-04-27T04:42:35.157Z,59.10
2019-04-27T04:45:20.282Z,59.00
2019-04-27T04:48:09.868Z,60.20
2019-04-27T04:50:40.203Z,61.60
2019-04-27T04:53:12.340Z,61.80
2019-04-27T04:55:43.685Z,62.40
2019-04-27T04:58:14.707Z,62.60
2019-04-27T05:00:46.186Z,63.80
2019-04-27T05:03:19.570Z,64.50
2019-04-27T05:05:52.710Z,64.50
2019-04-27T05:08:24.682Z,65.30
2019-04-27T05:10:55.652Z,65.60
2019-04-27T05:13:26.833Z,66.50
2019-04-27T05:15:58.909Z,66.40
2019-04-27T05:18:30.447Z,66.00
2019-04-27T05:24:10.398Z,66.80
2019-04-27T05:26:45.075Z,65.90
2019-04-27T05:29:16.214Z,65.80
2019-04-27T05:31:50.114Z,66.50
2019-04-27T05:34:22.770Z,66.60
2019-04-27T05:36:54.198Z,65.10
2019-04-27T05:39:26.238Z,65.10
2019-04-27T05:42:01.571Z,65.10
2019-04-27T05:45:11.438Z,64.60
2019-04-27T05:47:51.861Z,63.90
2019-04-27T05:50:35.255Z,63.90
2019-04-27T05:53:00.298Z,63.20
2019-04-27T05:55:39.293Z,62.90
2019-04-27T05:58:15.145Z,63.40
2019-04-27T06:00:49.576Z,62.30
2019-04-27T06:03:22.069Z,62.20
2019-04-27T06:05:54.978Z,61.70
2019-04-27T06:08:26.068Z,61.20
2019-04-27T06:10:57.034Z,60.70
2019-04-27T06:13:30.386Z,60.80
2019-04-27T06:16:01.626Z,60.90
2019-04-27T06:18:32.721Z,61.00
2019-04-27T06:21:04.330Z,60.50
2019-04-27T06:23:36.593Z,60.80
2019-04-27T06:26:11.434Z,60.50
2019-04-27T06:28:51.276Z,60.10
2019-04-27T06:31:22.252Z,60.20
2019-04-27T06:33:57.485Z,60.00
2019-04-27T06:36:28.819Z,60.20
2019-04-27T06:38:59.868Z,60.20
2019-04-27T06:41:32.793Z,59.90
2019-04-27T06:44:04.865Z,59.90
2019-04-27T06:46:42.327Z,59.80
2019-04-27T06:49:15.140Z,60.00
2019-04-27T06:51:46.115Z,60.50
2019-04-27T06:54:17.614Z,59.90
2019-04-27T06:56:51.842Z,60.50
2019-04-27T06:59:28.773Z,59.70
2019-04-27T07:02:11.732Z,59.60
2019-04-27T07:04:45.419Z,60.00
2019-04-27T07:07:21.987Z,60.60
2019-04-27T07:09:53.102Z,60.50
2019-04-27T07:12:25.904Z,60.60
2019-04-27T07:15:00.621Z,60.50
2019-04-27T07:17:31.372Z,60.30
2019-04-27T07:20:02.547Z,60.00
2019-04-27T07:22:33.705Z,60.10
2019-04-27T07:25:05.118Z,59.90
2019-04-27T07:27:36.974Z,59.90
2019-04-27T07:30:12.600Z,60.00
2019-04-27T07:32:46.171Z,59.60
2019-04-27T07:35:17.374Z,59.60
2019-04-27T07:37:49.646Z,59.20
2019-04-27T07:40:20.883Z,59.10
2019-04-27T07:42:59.341Z,59.00
2019-04-27T07:45:35.854Z,58.60
2019-04-27T07:48:09.275Z,58.80
2019-04-27T07:50:40.583Z,57.60
2019-04-27T07:53:11.914Z,57.20
2019-04-27T07:55:43.024Z,57.20
2019-04-27T07:58:21.891Z,57.50
2019-04-27T08:00:51.776Z,57.40
2019-04-27T08:03:25.477Z,57.80
2019-04-27T08:05:56.468Z,57.70
2019-04-27T08:08:29.012Z,57.10
2019-04-27T08:11:09.144Z,56.80
2019-04-27T08:13:53.888Z,57.10
2019-04-27T08:16:29.112Z,57.40
2019-04-27T08:19:00.162Z,56.80
2019-04-27T08:21:43.022Z,56.80
2019-04-27T08:24:12.220Z,56.80
2019-04-27T08:27:02.710Z,56.80
2019-04-27T08:29:55.447Z,56.50
2019-04-27T08:32:32.654Z,56.50
2019-04-27T08:35:13.564Z,56.90
2019-04-27T08:37:45.246Z,56.50
2019-04-27T08:40:19.270Z,55.80
2019-04-27T08:42:51.555Z,55.70
2019-04-27T08:45:29.253Z,56.10
2019-04-27T08:48:05.591Z,56.40
2019-04-27T08:50:44.715Z,56.10
2019-04-27T08:53:18.618Z,56.60
2019-04-27T08:55:52.689Z,56.80
2019-04-27T08:58:22.259Z,56.60
2019-04-27T09:00:53.733Z,56.90
2019-04-27T09:03:39.371Z,57.70
2019-04-27T09:06:13.088Z,58.60
2019-04-27T09:09:02.938Z,59.20
2019-04-27T09:11:44.366Z,59.60
2019-04-27T09:14:29.374Z,59.90
2019-04-27T09:17:16.858Z,60.40
2019-04-27T09:20:15.929Z,60.20
2019-04-27T09:22:46.965Z,60.60
2019-04-27T09:25:19.335Z,61.40
2019-04-27T09:27:50.623Z,61.20
2019-04-27T09:30:21.674Z,61.30
2019-04-27T09:32:52.979Z,61.10
2019-04-27T09:35:23.821Z,61.40
2019-04-27T09:37:56.279Z,60.60
2019-04-27T09:40:27.735Z,60.10
2019-04-27T09:42:58.574Z,59.70
2019-04-27T09:45:31.763Z,58.90
2019-04-27T09:48:03.106Z,58.30
2019-04-27T09:50:35.945Z,58.20
2019-04-27T09:53:09.914Z,58.30
2019-04-27T09:55:40.952Z,58.70
2019-04-27T09:58:15.992Z,58.80
2019-04-27T10:00:49.828Z,58.00
2019-04-27T10:03:21.150Z,57.80
2019-04-27T10:05:57.057Z,57.50
2019-04-27T10:08:41.429Z,57.80
2019-04-27T10:11:28.907Z,57.30
2019-04-27T10:14:02.299Z,57.10
2019-04-27T10:16:33.483Z,57.10
2019-04-27T10:19:05.294Z,57.20
2019-04-27T10:21:37.711Z,57.10
2019-04-27T10:24:08.801Z,56.80
2019-04-27T10:26:40.062Z,57.20
2019-04-27T10:29:12.126Z,56.80
2019-04-27T10:31:43.953Z,56.50
2019-04-27T10:34:15.822Z,56.40
2019-04-27T10:36:47.063Z,55.30
2019-04-27T10:39:19.736Z,55.30
2019-04-27T10:41:50.570Z,55.10
2019-04-27T10:44:21.194Z,54.80
2019-04-27T10:46:54.507Z,54.80
2019-04-27T10:49:26.207Z,54.80
2019-04-27T10:51:57.176Z,54.90
2019-04-27T10:54:27.986Z,55.20
2019-04-27T10:56:59.831Z,55.30
2019-04-27T10:59:30.916Z,55.20
2019-04-27T11:02:01.896Z,55.10
2019-04-27T11:05:11.529Z,54.70
2019-04-27T11:07:42.414Z,55.10
2019-04-27T11:10:16.194Z,55.40
2019-04-27T11:12:48.871Z,55.60
2019-04-27T11:15:20.051Z,55.70
2019-04-27T11:17:53.105Z,55.30
2019-04-27T11:20:27.519Z,55.50
2019-04-27T11:23:07.067Z,55.10
2019-04-27T11:25:30.071Z,55.00
2019-04-27T11:28:01.123Z,55.00
2019-04-27T11:30:41.973Z,54.30
2019-04-27T11:33:19.983Z,53.60
2019-04-27T11:36:23.027Z,53.00
2019-04-27T11:38:56.435Z,52.80
2019-04-27T11:41:31.378Z,52.50
2019-04-27T11:44:03.708Z,52.30
2019-04-27T11:46:47.343Z,53.00
2019-04-27T11:49:20.171Z,53.00
2019-04-27T11:51:51.456Z,52.90
2019-04-27T11:54:22.745Z,53.20
2019-04-27T11:56:53.756Z,53.50
2019-04-27T11:59:24.976Z,54.00
2019-04-27T12:01:56.242Z,53.60
2019-04-27T12:04:29.157Z,54.00
2019-04-27T12:07:00.363Z,54.60
2019-04-27T12:09:31.263Z,54.90
2019-04-27T12:12:13.611Z,54.80
2019-04-27T12:14:38.722Z,54.80
2019-04-27T12:17:10.167Z,56.20
2019-04-27T12:19:41.167Z,55.90
2019-04-27T12:22:12.138Z,55.90
2019-04-27T12:24:43.062Z,56.30
2019-04-27T12:27:35.875Z,55.80
2019-04-27T12:30:18.881Z,54.70
2019-04-27T12:32:50.120Z,52.90
2019-04-27T12:35:22.576Z,50.00
2019-04-27T12:37:56.002Z,45.40
2019-04-27T12:40:27.112Z,44.10
2019-04-27T12:42:58.830Z,43.60
2019-04-27T12:45:30.400Z,43.90
2019-04-27T12:48:01.883Z,42.50
2019-04-27T12:50:32.928Z,43.20
2019-04-27T12:53:06.932Z,43.80
2019-04-27T12:56:09.054Z,45.00
2019-04-27T12:59:09.381Z,45.80
2019-04-27T13:01:40.705Z,46.60
2019-04-27T13:04:11.656Z,44.00
2019-04-27T13:06:42.749Z,40.80
2019-04-27T13:09:15.557Z,38.60
2019-04-27T13:11:46.579Z,37.10
2019-04-27T13:14:17.446Z,34.80
2019-04-27T13:16:48.876Z,33.30
2019-04-27T13:19:19.814Z,34.30
2019-04-27T13:21:51.423Z,35.80
2019-04-27T13:24:22.039Z,38.20
2019-04-27T13:26:53.045Z,39.90
2019-04-27T13:29:25.616Z,38.70
2019-04-27T13:31:57.704Z,36.20
2019-04-27T13:34:38.372Z,34.00
2019-04-27T13:37:43.308Z,33.20
2019-04-27T13:40:17.134Z,32.60
2019-04-27T13:43:07.506Z,32.40
2019-04-27T13:46:09.181Z,31.70
2019-04-27T13:49:01.235Z,31.70
2019-04-27T13:51:41.962Z,31.40
2019-04-27T13:54:18.871Z,30.20
2019-04-27T13:56:47.513Z,29.90
2019-04-27T13:59:18.150Z,30.50
2019-04-27T14:01:48.831Z,31.20
2019-04-27T14:04:19.667Z,32.10
2019-04-27T14:06:51.299Z,34.80
2019-04-27T14:09:23.513Z,37.10
2019-04-27T14:12:28.374Z,38.50
2019-04-27T14:15:18.686Z,40.10
2019-04-27T14:20:41.209Z,41.60
2019-04-27T14:23:14.405Z,42.10
2019-04-27T14:25:45.850Z,42.90
2019-04-27T14:28:18.324Z,43.00
2019-04-27T14:30:52.346Z,43.30
2019-04-27T14:33:23.422Z,44.30
2019-04-27T14:35:54.090Z,44.50
2019-04-27T14:38:27.116Z,45.00
2019-04-27T14:40:59.475Z,45.20
2019-04-27T14:43:30.432Z,45.50
2019-04-27T14:46:01.506Z,45.60
2019-04-27T14:48:32.631Z,45.60
2019-04-27T14:51:05.365Z,46.00
2019-04-27T14:53:38.635Z,46.10
2019-04-27T14:56:10.719Z,46.40
2019-04-27T14:58:43.021Z,46.70
2019-04-27T15:01:13.682Z,46.20
2019-04-27T15:03:45.226Z,46.00
2019-04-27T15:06:16.748Z,45.60
2019-04-27T15:08:49.150Z,44.40
2019-04-27T15:11:19.929Z,44.00
2019-04-27T15:13:52.609Z,43.70
2019-04-27T15:16:23.781Z,43.40
2019-04-27T15:19:00.005Z,43.20
2019-04-27T15:21:38.417Z,42.60
2019-04-27T15:24:13.614Z,40.90
2019-04-27T15:26:44.719Z,41.90
2019-04-27T15:29:20.536Z,40.90
2019-04-27T15:32:02.646Z,40.90
2019-04-27T15:34:50.742Z,41.20
2019-04-27T15:37:34.201Z,40.70
2019-04-27T15:40:35.934Z,40.70
2019-04-27T15:43:32.610Z,40.30
2019-04-27T15:46:05.151Z,39.30
2019-04-27T15:48:36.417Z,40.00
2019-04-27T15:51:14.677Z,40.30
2019-04-27T15:53:45.948Z,40.80
2019-04-27T15:56:18.146Z,41.80
2019-04-27T15:58:50.850Z,42.10
2019-04-27T16:01:22.003Z,42.10
2019-04-27T16:03:53.090Z,42.50
2019-04-27T16:06:24.171Z,42.60
2019-04-27T16:08:55.508Z,42.50
2019-04-27T16:11:27.171Z,42.50
2019-04-27T16:13:58.754Z,42.50
2019-04-27T16:16:33.436Z,42.50
2019-04-27T16:19:08.830Z,42.50
2019-04-27T16:21:46.978Z,42.50
2019-04-27T16:24:21.248Z,42.60
2019-04-27T16:26:56.144Z,41.70
2019-04-27T16:29:31.492Z,40.90
2019-04-27T16:32:09.646Z,40.80
2019-04-27T16:34:41.263Z,40.70
2019-04-27T16:37:18.882Z,40.90
2019-04-27T16:39:47.891Z,39.70
2019-04-27T16:42:19.743Z,39.80
2019-04-27T16:44:53.167Z,39.90
2019-04-27T16:47:24.564Z,40.20
2019-04-27T16:49:58.597Z,40.40
2019-04-27T16:52:31.422Z,40.70
2019-04-27T16:55:03.382Z,40.70
2019-04-27T16:57:37.368Z,40.80
2019-04-27T17:00:22.573Z,40.90
2019-04-27T17:03:05.151Z,40.90
2019-04-27T17:05:35.480Z,40.70
2019-04-27T17:08:21.491Z,41.20
2019-04-27T17:10:45.267Z,41.10
2019-04-27T17:13:16.367Z,41.40
2019-04-27T17:16:08.639Z,41.00
2019-04-27T17:18:46.839Z,41.80
2019-04-27T17:21:23.158Z,41.80
2019-04-27T17:23:56.404Z,42.10
2019-04-27T17:26:29.127Z,43.20
2019-04-27T17:29:16.128Z,43.90
2019-04-27T17:31:44.835Z,44.50
2019-04-27T17:34:18.995Z,46.10
2019-04-27T17:37:25.174Z,47.00
2019-04-27T17:40:00.907Z,47.20
2019-04-27T17:42:32.175Z,47.40
2019-04-27T17:45:04.093Z,47.60
2019-04-27T17:47:35.376Z,47.50
2019-04-27T17:50:09.611Z,47.50
2019-04-27T17:52:57.020Z,47.80
2019-04-27T17:55:33.079Z,48.20
2019-04-27T17:58:06.677Z,48.30
2019-04-27T18:00:44.577Z,48.20
2019-04-27T18:03:17.609Z,48.20
2019-04-27T18:05:50.588Z,48.20
2019-04-27T18:08:24.554Z,48.10
2019-04-27T18:10:53.678Z,48.30
2019-04-27T18:13:28.747Z,48.20
2019-04-27T18:16:03.045Z,48.30
2019-04-27T18:18:41.129Z,48.30
2019-04-27T18:21:14.630Z,48.50
2019-04-27T18:23:58.281Z,48.60
2019-04-27T18:26:52.094Z,48.60
2019-04-27T18:29:27.697Z,48.40
2019-04-27T18:31:59.918Z,48.60
2019-04-27T18:34:31.284Z,49.40
2019-04-27T18:37:04.285Z,49.80
2019-04-27T18:39:35.402Z,50.50
2019-04-27T18:42:08.877Z,50.70
2019-04-27T18:44:40.379Z,51.10
2019-04-27T18:47:12.311Z,51.30
2019-04-27T18:50:11.123Z,51.50
2019-04-27T18:52:53.007Z,51.80
2019-04-27T18:55:26.059Z,51.90
2019-04-27T18:58:00.509Z,51.50
2019-04-27T19:00:30.212Z,51.60
2019-04-27T19:03:01.736Z,51.50
2019-04-27T19:05:41.614Z,51.40
2019-04-27T19:08:15.286Z,52.20
2019-04-27T19:10:47.361Z,52.50
2019-04-27T19:13:22.381Z,52.80
2019-04-27T19:15:53.678Z,52.50
2019-04-27T19:18:24.716Z,52.50
2019-04-27T19:21:03.089Z,52.00
2019-04-27T19:23:35.663Z,51.70
2019-04-27T19:26:26.029Z,51.20
2019-04-27T19:29:18.774Z,51.10
2019-04-27T19:31:58.626Z,51.20
2019-04-27T19:34:28.782Z,51.20
2019-04-27T19:37:08.133Z,51.40
2019-04-27T19:39:39.691Z,51.50
2019-04-27T19:42:18.404Z,51.50
2019-04-27T19:44:50.319Z,51.60
2019-04-27T19:47:21.278Z,52.00
2019-04-27T19:49:52.154Z,52.00
2019-04-27T19:52:23.346Z,51.80
2019-04-27T19:55:00.410Z,51.60
2019-04-27T19:57:38.547Z,51.40
2019-04-27T20:00:41.336Z,51.50
2019-04-27T20:03:16.605Z,51.70
2019-04-27T20:05:48.621Z,52.00
2019-04-27T20:08:23.792Z,52.80
2019-04-27T20:10:56.494Z,52.90
2019-04-27T20:13:27.429Z,53.50
2019-04-27T20:15:58.228Z,53.60
2019-04-27T20:18:35.057Z,53.80
2019-04-27T20:21:12.332Z,53.50
2019-04-27T20:23:44.356Z,53.70
2019-04-27T20:26:19.771Z,53.90
2019-04-27T20:28:51.445Z,53.90
2019-04-27T20:31:22.316Z,53.70
2019-04-27T20:33:54.012Z,53.70
2019-04-27T20:36:31.295Z,53.70
2019-04-27T20:39:05.703Z,53.50
2019-04-27T20:41:35.273Z,53.00
2019-04-27T20:44:12.395Z,53.40
2019-04-27T20:46:43.814Z,54.10
2019-04-27T20:49:19.173Z,54.50
2019-04-27T20:52:12.966Z,55.80
2019-04-27T20:54:46.391Z,55.50
2019-04-27T20:57:17.778Z,55.90
2019-04-27T20:59:50.500Z,56.70
2019-04-27T21:02:41.806Z,57.20
2019-04-27T21:05:53.849Z,57.30
2019-04-27T21:08:25.303Z,57.30
2019-04-27T21:10:56.727Z,57.00
2019-04-27T21:13:28.547Z,56.50
2019-04-27T21:15:59.544Z,56.20
2019-04-27T21:18:31.834Z,56.10
2019-04-27T21:21:03.375Z,56.30
2019-04-27T21:23:36.004Z,55.30
2019-04-27T21:26:07.226Z,55.80
2019-04-27T21:28:38.712Z,54.80
2019-04-27T21:31:12.725Z,54.70
2019-04-27T21:33:44.534Z,54.70
2019-04-27T21:36:21.654Z,55.40
2019-04-27T21:38:53.027Z,56.60
2019-04-27T21:41:24.536Z,57.00
2019-04-27T21:43:56.074Z,57.20
2019-04-27T21:46:27.471Z,57.50
2019-04-27T21:48:59.398Z,59.20
2019-04-27T21:51:32.998Z,62.50
2019-04-27T21:54:21.346Z,64.10
2019-04-27T21:56:51.979Z,65.80
2019-04-27T21:59:25.800Z,67.10
2019-04-27T22:02:02.282Z,66.70
2019-04-27T22:04:35.758Z,67.30
2019-04-27T22:07:09.273Z,68.00
2019-04-27T22:09:43.045Z,67.80
2019-04-27T22:12:14.433Z,68.10
2019-04-27T22:14:45.342Z,68.80
2019-04-27T22:17:18.357Z,68.10
2019-04-27T22:19:49.127Z,68.30
2019-04-27T22:22:37.556Z,68.70
2019-04-27T22:25:13.600Z,68.70
2019-04-27T22:27:44.989Z,68.80
2019-04-27T22:30:16.524Z,68.40
2019-04-27T22:32:52.219Z,67.80
2019-04-27T22:35:25.533Z,68.50
2019-04-27T22:37:56.795Z,69.20
2019-04-27T22:40:47.418Z,69.30
2019-04-27T22:43:51.456Z,69.30
2019-04-27T22:46:34.159Z,68.90
2019-04-27T22:49:07.589Z,66.60
2019-04-27T22:51:42.731Z,65.00
2019-04-27T22:54:16.055Z,65.30
2019-04-27T22:56:47.639Z,64.10
2019-04-27T22:59:29.199Z,62.70
2019-04-27T23:02:16.874Z,62.40
2019-04-27T23:04:51.772Z,62.40
2019-04-27T23:07:24.363Z,60.90
2019-04-27T23:09:55.275Z,60.40
2019-04-27T23:12:26.163Z,59.80
2019-04-27T23:14:56.859Z,59.70
2019-04-27T23:17:49.205Z,59.60
2019-04-27T23:20:20.834Z,59.30
2019-04-27T23:22:51.960Z,57.90
2019-04-27T23:25:25.931Z,58.40
2019-04-27T23:27:56.685Z,57.80
2019-04-27T23:30:41.089Z,57.80
2019-04-27T23:33:11.886Z,58.00
2019-04-27T23:35:44.360Z,57.40
2019-04-27T23:38:18.319Z,57.10
2019-04-27T23:40:49.319Z,57.50
2019-04-27T23:43:20.199Z,56.60
2019-04-27T23:45:51.627Z,56.60
2019-04-27T23:48:32.205Z,56.60
2019-04-27T23:51:17.298Z,56.40
2019-04-27T23:53:47.984Z,56.30
2019-04-27T23:56:20.558Z,56.20
2019-04-27T23:58:52.532Z,56.30
